Heidelberg, Texas
Current Conditions -  °F | °C
As of 4:15 PM on Sunday 23 Nov 2014 (Local Time) from KT65 Reporting Station
Clear Clear  
Wind Chill: 84°   Ceiling: Unl
Heat Index: 84°   Visibility: 10mi
Dew Point: 51°   Wind: 7mph
Humidity: 31%   Direction: 190°S
Pressure: 29.62"   Gusts: NA
Location:  26.1456°N, 97.91°W
Report Text: KT65 232215Z AUTO 19006KT 10SM CLR 29/10 A2962 RMK AO2 P0001 T02900103
Loading
Personal Weather Stations






























Interactive Weather Map New forecast layout! Learn more

10-Day Weather Forecast

Advertisements
Track Severe Weather on mobile